Time;durP1;ratioP1;P1;durP2;ratioP2;P2;SDS_P1;SDS_P2;PMS_P1;PMS_P2;Temp;Humidity;BMP_temperature;BMP_pressure;BME280_temperature;BME280_humidity;BME280_pressure;Samples;Min_cycle;Max_cycle;Signal;HPM_P1;HPM_P2
2021/03/01 04:04:47;;;;;;;;;;;;;;;0.54;100.00;100912.77;1743673;77;20623;-67
2021/03/01 04:07:15;;;;;;;;;;;;;;;0.54;100.00;100919.19;1738097;81;20130;-65
2021/03/01 04:09:43;;;;;;;;;;;;;;;0.52;100.00;100917.17;1697888;83;20225;-67
2021/03/01 04:12:12;;;;;;;;;;;;;;;0.53;100.00;100927.81;1704198;83;20271;-66
2021/03/01 04:14:40;;;;;;;;;;;;;;;0.54;100.00;100928.63;1698412;83;22357;-69
2021/03/01 04:17:11;;;;;;;;;;;;;;;0.55;100.00;100930.27;1750891;81;20664;-66
2021/03/01 04:19:42;;;;;;;;;;;;;;;0.55;100.00;100934.93;1697302;82;20477;-64
2021/03/01 04:22:10;;;;;;;;;;;;;;;0.56;100.00;100934.00;1718765;83;20199;-65
2021/03/01 04:24:40;;;;;;;;;;;;;;;0.56;100.00;100941.70;1716299;82;20255;-65
2021/03/01 04:27:08;;;;;;;;;;;;;;;0.55;100.00;100941.34;1718179;83;21271;-65
2021/03/01 04:29:38;;;;;;;;;;;;;;;0.55;100.00;100942.63;1692663;83;20638;-64
2021/03/01 04:32:06;;;;;;;;;;;;;;;0.53;100.00;100945.77;1716020;82;20224;-64
2021/03/01 04:34:34;;;;;;;;;;;;;;;0.54;100.00;100953.81;1716642;83;20136;-66
2021/03/01 04:37:02;;;;;;;;;;;;;;;0.56;100.00;100950.67;1716371;83;20314;-67
2021/03/01 04:39:30;;;;;;;;;;;;;;;0.58;100.00;100953.97;1708420;83;21637;-64
2021/03/01 04:41:58;;;;;;;;;;;;;;;0.60;100.00;100962.37;1711607;83;20176;-64
2021/03/01 04:44:26;;;;;;;;;;;;;;;0.62;100.00;100965.67;1713784;83;20222;-69
2021/03/01 04:46:53;;;;;;;;;;;;;;;0.63;100.00;100966.02;1702434;82;20164;-65
2021/03/01 04:49:21;;;;;;;;;;;;;;;0.68;100.00;100969.56;1715166;82;20242;-67
2021/03/01 04:51:50;;;;;;;;;;;;;;;0.70;100.00;100966.45;1712929;83;22426;-66
2021/03/01 04:54:17;;;;;;;;;;;;;;;0.73;100.00;100974.77;1715186;83;20152;-66
2021/03/01 04:56:46;;;;;;;;;;;;;;;0.77;100.00;100980.98;1711503;83;20220;-66
2021/03/01 04:59:14;;;;;;;;;;;;;;;0.81;100.00;100981.13;1714623;83;21233;-64
2021/03/01 05:01:42;;;;;;;;;;;;;;;0.83;100.00;100981.84;1712620;83;20233;-65
2021/03/01 05:04:10;;;;;;;;;;;;;;;0.86;100.00;100988.05;1709846;83;21386;-67
2021/03/01 05:06:39;;;;;;;;;;;;;;;0.90;100.00;100994.16;1708046;81;21069;-67
2021/03/01 05:09:07;;;;;;;;;;;;;;;0.93;100.00;100999.09;1712173;82;20608;-68
2021/03/01 05:11:37;;;;;;;;;;;;;;;0.94;100.00;100999.45;1698454;82;20215;-65
2021/03/01 05:14:06;;;;;;;;;;;;;;;0.95;100.00;101003.68;1705675;83;20436;-65
2021/03/01 05:16:34;;;;;;;;;;;;;;;0.97;100.00;101003.09;1705993;82;22224;-71
2021/03/01 05:19:03;;;;;;;;;;;;;;;1.02;100.00;101005.34;1703369;83;20310;-66
2021/03/01 05:21:31;;;;;;;;;;;;;;;1.08;100.00;101006.23;1715974;82;20259;-66
2021/03/01 05:23:59;;;;;;;;;;;;;;;1.16;100.00;101012.13;1722563;82;20251;-67
2021/03/01 05:26:27;;;;;;;;;;;;;;;1.24;100.00;101016.75;1715754;82;20218;-68
2021/03/01 05:28:56;;;;;;;;;;;;;;;1.31;100.00;101018.80;1714756;82;23023;-65
2021/03/01 05:31:24;;;;;;;;;;;;;;;1.38;100.00;101020.02;1722202;82;20242;-65
2021/03/01 05:33:53;;;;;;;;;;;;;;;1.46;100.00;101024.64;1718230;82;20349;-69
2021/03/01 05:36:21;;;;;;;;;;;;;;;1.55;100.00;101029.59;1716705;82;20275;-69
2021/03/01 05:38:49;;;;;;;;;;;;;;;1.61;100.00;101035.14;1716204;82;20302;-69
2021/03/01 05:41:18;;;;;;;;;;;;;;;1.67;100.00;101041.16;1714678;82;21293;-67
2021/03/01 05:43:47;;;;;;;;;;;;;;;1.73;100.00;101042.47;1717529;82;20132;-66
2021/03/01 05:46:16;;;;;;;;;;;;;;;1.78;100.00;101044.27;1714924;82;20601;-67
2021/03/01 05:48:46;;;;;;;;;;;;;;;1.86;100.00;101041.98;1705688;82;20398;-72
2021/03/01 05:51:15;;;;;;;;;;;;;;;1.97;100.00;101049.38;1708104;82;20344;-68
2021/03/01 05:53:43;;;;;;;;;;;;;;;2.05;100.00;101054.37;1705807;82;23499;-68
2021/03/01 05:56:12;;;;;;;;;;;;;;;2.15;100.00;101054.52;1711462;82;20252;-68
2021/03/01 05:58:40;;;;;;;;;;;;;;;2.19;100.00;101063.19;1677655;83;20362;-71
2021/03/01 06:01:08;;;;;;;;;;;;;;;2.22;100.00;101066.48;1707866;83;20405;-68
2021/03/01 06:03:37;;;;;;;;;;;;;;;2.25;100.00;101064.52;1715677;82;20231;-68
2021/03/01 06:06:05;;;;;;;;;;;;;;;2.31;100.00;101070.97;1710721;83;21409;-67
2021/03/01 06:08:34;;;;;;;;;;;;;;;2.40;100.00;101072.43;1704108;82;20662;-71
2021/03/01 06:11:05;;;;;;;;;;;;;;;2.48;100.00;101079.59;1705142;82;20373;-71
2021/03/01 06:13:33;;;;;;;;;;;;;;;2.52;100.00;101078.44;1722005;82;20242;-70
2021/03/01 06:16:01;;;;;;;;;;;;;;;2.55;100.00;101087.23;1728995;81;20297;-70
2021/03/01 06:18:29;;;;;;;;;;;;;;;2.61;100.00;101088.53;1724496;81;21246;-75
2021/03/01 06:21:13;;;;;;;;;;;;;;;2.67;100.00;101088.91;1722117;81;20911;-69
2021/03/01 06:23:41;;;;;;;;;;;;;;;2.71;100.00;101097.23;1716191;82;20216;-69
2021/03/01 06:26:30;;;;;;;;;;;;;;;2.76;100.00;101100.76;1715607;82;20226;-76
2021/03/01 06:29:06;;;;;;;;;;;;;;;2.78;100.00;101106.16;1680839;84;20557;-68
2021/03/01 06:31:48;;;;;;;;;;;;;;;2.70;100.00;101108.47;1721128;81;21212;-70
2021/03/01 06:34:25;;;;;;;;;;;;;;;2.63;100.00;101113.70;1716260;82;21187;-70
2021/03/01 06:37:03;;;;;;;;;;;;;;;2.61;100.00;101115.11;1730452;81;20495;-67
2021/03/01 06:39:38;;;;;;;;;;;;;;;2.55;100.00;101115.55;1732495;81;20227;-67
2021/03/01 06:42:25;;;;;;;;;;;;;;;2.57;100.00;101120.09;1727878;81;20323;-67
2021/03/01 06:45:00;;;;;;;;;;;;;;;2.63;100.00;101124.81;1720505;82;21557;-66
2021/03/01 06:47:51;;;;;;;;;;;;;;;2.70;100.00;101125.20;1719129;83;20186;-65
2021/03/01 06:50:31;;;;;;;;;;;;;;;2.81;100.00;101130.41;1713472;82;20589;-66
2021/03/01 06:53:02;;;;;;;;;;;;;;;2.89;100.00;101127.27;1718397;83;20682;-67
2021/03/01 06:55:31;;;;;;;;;;;;;;;2.90;100.00;101131.48;1709192;83;20323;-65
2021/03/01 06:58:12;;;;;;;;;;;;;;;2.88;100.00;101129.50;1714413;83;21600;-66
2021/03/01 07:00:39;;;;;;;;;;;;;;;2.90;100.00;101136.16;1688915;83;20997;-65
2021/03/01 07:03:21;;;;;;;;;;;;;;;2.92;100.00;101145.08;1709416;83;20239;-66
2021/03/01 07:05:52;;;;;;;;;;;;;;;2.93;100.00;101141.09;1701029;83;20301;-65
2021/03/01 07:08:35;;;;;;;;;;;;;;;2.97;100.00;101145.55;1715305;83;20517;-65
2021/03/01 07:11:04;;;;;;;;;;;;;;;3.00;100.00;101150.48;1698359;83;21229;-65
2021/03/01 07:13:33;;;;;;;;;;;;;;;2.95;100.00;101146.59;1716169;83;20653;-71
2021/03/01 07:16:00;;;;;;;;;;;;;;;2.92;100.00;101148.47;1668465;83;20238;-65
2021/03/01 07:18:29;;;;;;;;;;;;;;;2.93;100.00;101153.97;1680048;84;20245;-64
2021/03/01 07:20:58;;;;;;;;;;;;;;;2.92;100.00;101148.47;1744083;81;20223;-65
2021/03/01 07:23:26;;;;;;;;;;;;;;;2.98;100.00;101152.81;1753832;81;21833;-65
2021/03/01 07:25:54;;;;;;;;;;;;;;;3.05;100.00;101150.96;1733012;81;21302;-71
2021/03/01 07:28:22;;;;;;;;;;;;;;;3.13;100.00;101154.27;1762181;81;20520;-64
2021/03/01 07:30:50;;;;;;;;;;;;;;;3.20;100.00;101158.50;1737547;81;20268;-64
2021/03/01 07:33:18;;;;;;;;;;;;;;;3.29;100.00;101159.91;1748866;81;20222;-65
2021/03/01 07:35:46;;;;;;;;;;;;;;;3.40;100.00;101154.79;1748780;81;21374;-65
2021/03/01 07:38:14;;;;;;;;;;;;;;;3.50;100.00;101154.12;1753857;81;21010;-65
2021/03/01 07:40:42;;;;;;;;;;;;;;;3.55;100.00;101156.69;1745753;81;20414;-65
2021/03/01 07:43:11;;;;;;;;;;;;;;;3.60;100.00;101158.47;1724191;81;20290;-65
2021/03/01 07:45:39;;;;;;;;;;;;;;;3.69;100.00;101170.31;1755371;81;20219;-67
2021/03/01 07:48:12;;;;;;;;;;;;;;;3.77;100.00;101167.97;1755491;81;21372;-65
2021/03/01 07:50:43;;;;;;;;;;;;;;;3.88;100.00;101164.92;1733392;81;20665;-65
2021/03/01 07:53:49;;;;;;;;;;;;;;;4.04;100.00;101163.27;1756521;81;20484;-65
2021/03/01 07:56:26;;;;;;;;;;;;;;;4.22;100.00;101165.37;1748728;80;20222;-65
2021/03/01 07:58:57;;;;;;;;;;;;;;;4.42;100.00;101171.08;1746100;81;20211;-63
2021/03/01 08:01:24;;;;;;;;;;;;;;;4.51;100.00;101172.95;1751210;81;21205;-64
2021/03/01 08:03:52;;;;;;;;;;;;;;;4.46;100.00;101169.90;1754915;81;20335;-65
2021/03/01 08:06:21;;;;;;;;;;;;;;;4.36;100.00;101172.87;1741158;80;20320;-72
2021/03/01 08:08:51;;;;;;;;;;;;;;;4.41;100.00;101169.45;1726055;82;21146;-64
2021/03/01 08:11:42;;;;;;;;;;;;;;;4.60;100.00;101169.63;1743666;81;20295;-70
2021/03/01 08:14:11;;;;;;;;;;;;;;;4.81;100.00;101164.53;1732850;82;21706;-64
2021/03/01 08:16:39;;;;;;;;;;;;;;;5.00;100.00;101172.91;1732200;82;20132;-65
2021/03/01 08:19:08;;;;;;;;;;;;;;;5.15;100.00;101179.05;1747013;82;20227;-65
2021/03/01 08:22:05;;;;;;;;;;;;;;;5.24;100.00;101184.30;1726245;82;20538;-65
2021/03/01 08:24:54;;;;;;;;;;;;;;;5.26;100.00;101190.63;1644634;83;20265;-73
2021/03/01 08:27:29;;;;;;;;;;;;;;;5.21;100.00;101192.78;1700214;84;22305;-66
2021/03/01 08:30:22;;;;;;;;;;;;;;;5.01;100.00;101193.11;1674739;85;20230;-66
2021/03/01 08:33:12;;;;;;;;;;;;;;;4.72;100.00;101200.12;1686473;84;20242;-66
2021/03/01 08:35:42;;;;;;;;;;;;;;;4.51;100.00;101203.09;1678937;84;20943;-72
2021/03/01 08:38:11;;;;;;;;;;;;;;;4.44;100.00;101204.54;1675499;84;20407;-69
2021/03/01 08:40:52;;;;;;;;;;;;;;;4.37;100.00;101202.90;1689365;83;21147;-66
2021/03/01 08:43:34;;;;;;;;;;;;;;;4.34;100.00;101205.72;1665411;85;20241;-72
2021/03/01 08:46:04;;;;;;;;;;;;;;;4.36;100.00;101209.02;1706398;84;20203;-67
2021/03/01 08:48:40;;;;;;;;;;;;;;;4.41;100.00;101206.87;1703323;84;20290;-67
2021/03/01 08:51:11;;;;;;;;;;;;;;;4.58;100.00;101210.27;1685951;84;20267;-68
2021/03/01 08:53:40;;;;;;;;;;;;;;;4.85;100.00;101209.02;1668907;84;21386;-66
2021/03/01 08:56:23;;;;;;;;;;;;;;;5.13;100.00;101206.33;1688896;85;20121;-67
2021/03/01 08:58:50;;;;;;;;;;;;;;;5.37;100.00;101202.20;1664827;84;20224;-70
2021/03/01 09:01:18;;;;;;;;;;;;;;;5.58;100.00;101206.91;1686957;84;20283;-67
2021/03/01 09:03:47;;;;;;;;;;;;;;;5.77;100.00;101202.80;1685364;85;20548;-67
2021/03/01 09:06:18;;;;;;;;;;;;;;;5.93;100.00;101207.05;1705826;83;21395;-67
2021/03/01 09:08:53;;;;;;;;;;;;;;;6.08;100.00;101212.22;1712758;83;20219;-72
2021/03/01 09:14:06;;;;;;;;;;;;;;;6.28;100.00;101216.17;1828625;77;20276;-67
2021/03/01 09:16:35;;;;;;;;;;;;;;;6.25;100.00;101219.86;1804992;79;20133;-69
2021/03/01 09:19:06;;;;;;;;;;;;;;;6.28;100.00;101221.34;1807277;79;22121;-67
2021/03/01 09:21:36;;;;;;;;;;;;;;;6.30;100.00;101227.23;1796921;79;20120;-67
2021/03/01 09:24:05;;;;;;;;;;;;;;;6.32;100.00;101230.48;1764874;79;20150;-67
2021/03/01 09:26:41;;;;;;;;;;;;;;;6.37;100.00;101229.64;1812837;79;20498;-68
2021/03/01 09:29:14;;;;;;;;;;;;;;;6.43;100.00;101231.68;1792120;78;20735;-68
2021/03/01 09:31:49;;;;;;;;;;;;;;;6.40;100.00;101237.13;1796567;78;21353;-65
2021/03/01 09:34:18;;;;;;;;;;;;;;;6.38;100.00;101236.45;1807398;79;20131;-71
2021/03/01 09:36:48;;;;;;;;;;;;;;;6.47;100.00;101238.72;1808934;78;20113;-65
2021/03/01 09:39:17;;;;;;;;;;;;;;;6.56;100.00;101232.76;1808435;79;20254;-66
2021/03/01 09:41:49;;;;;;;;;;;;;;;6.60;100.00;101230.72;1814791;79;20295;-65
2021/03/01 09:44:28;;;;;;;;;;;;;;;6.67;100.00;101231.35;1808367;78;21377;-65
2021/03/01 09:46:56;;;;;;;;;;;;;;;6.89;100.00;101232.86;1801816;78;20705;-65
2021/03/01 09:49:26;;;;;;;;;;;;;;;7.36;100.00;101226.53;1812988;79;20215;-66
2021/03/01 09:51:54;;;;;;;;;;;;;;;7.94;100.00;101217.80;1809194;78;20125;-68
2021/03/01 09:54:22;;;;;;;;;;;;;;;8.53;100.00;101220.02;1814806;79;20125;-69
2021/03/01 09:56:53;;;;;;;;;;;;;;;9.18;100.00;101213.80;1813221;79;22187;-66
2021/03/01 09:59:37;;;;;;;;;;;;;;;9.73;100.00;101211.73;1807909;79;20118;-66
2021/03/01 10:02:08;;;;;;;;;;;;;;;10.35;100.00;101202.95;1802117;79;20555;-70
2021/03/01 10:04:38;;;;;;;;;;;;;;;11.22;100.00;101210.73;1804685;79;20228;-66
2021/03/01 10:07:21;;;;;;;;;;;;;;;11.76;100.00;101210.97;1798317;79;20496;-66
2021/03/01 10:09:49;;;;;;;;;;;;;;;11.90;100.00;101220.77;1806504;79;21141;-68
2021/03/01 10:12:18;;;;;;;;;;;;;;;11.62;96.40;101218.98;1803532;79;20276;-68
2021/03/01 10:14:46;;;;;;;;;;;;;;;11.08;99.21;101232.25;1802475;79;20215;-69
2021/03/01 10:17:20;;;;;;;;;;;;;;;10.29;98.93;101234.34;1808612;79;20145;-70
2021/03/01 10:19:49;;;;;;;;;;;;;;;9.44;100.00;101236.77;1799711;78;20174;-68
2021/03/01 10:22:17;;;;;;;;;;;;;;;8.59;100.00;101243.29;1774219;79;22280;-68
2021/03/01 10:24:49;;;;;;;;;;;;;;;7.89;100.00;101245.48;1817324;78;20154;-66
2021/03/01 10:27:17;;;;;;;;;;;;;;;7.31;100.00;101254.19;1798844;78;20163;-65
2021/03/01 10:29:50;;;;;;;;;;;;;;;6.94;100.00;101251.44;1806766;79;20208;-65
2021/03/01 10:32:22;;;;;;;;;;;;;;;6.61;100.00;101248.71;1804296;79;20232;-68
2021/03/01 10:34:50;;;;;;;;;;;;;;;6.20;100.00;101253.06;1802725;79;21136;-64
2021/03/01 10:37:22;;;;;;;;;;;;;;;5.96;100.00;101257.26;1806716;78;20125;-71
2021/03/01 10:39:50;;;;;;;;;;;;;;;5.83;100.00;101250.97;1802863;79;20220;-64
2021/03/01 10:42:19;;;;;;;;;;;;;;;5.76;100.00;101251.61;1815648;79;20499;-63
2021/03/01 10:44:54;;;;;;;;;;;;;;;5.81;100.00;101248.97;1804611;79;20223;-64
2021/03/01 10:50:18;;;;;;;;;;;;;;;6.09;100.00;101245.39;1668516;84;20175;-65
2021/03/01 10:52:46;;;;;;;;;;;;;;;6.27;100.00;101249.49;1679036;84;20231;-65
2021/03/01 10:55:15;;;;;;;;;;;;;;;6.40;100.00;101251.36;1648445;86;20341;-65
2021/03/01 10:57:43;;;;;;;;;;;;;;;6.53;100.00;101248.08;1665234;84;20242;-65
2021/03/01 11:00:12;;;;;;;;;;;;;;;6.68;100.00;101252.89;1652166;84;21340;-66
2021/03/01 11:02:39;;;;;;;;;;;;;;;6.79;100.00;101247.59;1667567;84;20220;-64
2021/03/01 11:05:09;;;;;;;;;;;;;;;6.86;100.00;101243.97;1667840;84;20143;-66
2021/03/01 11:07:37;;;;;;;;;;;;;;;6.88;100.00;101251.15;1662289;84;20495;-64
2021/03/01 11:10:06;;;;;;;;;;;;;;;6.89;100.00;101253.59;1674759;84;20294;-66
2021/03/01 11:12:35;;;;;;;;;;;;;;;6.87;100.00;101252.92;1671187;84;21483;-66
2021/03/01 11:15:05;;;;;;;;;;;;;;;6.78;100.00;101250.67;1671666;84;20228;-67
2021/03/01 11:17:32;;;;;;;;;;;;;;;6.79;100.00;101251.48;1668968;84;20234;-64
2021/03/01 11:20:01;;;;;;;;;;;;;;;6.77;100.00;101247.72;1656099;84;20165;-65
2021/03/01 11:22:29;;;;;;;;;;;;;;;6.80;100.00;101243.56;1665161;84;20305;-66
2021/03/01 11:24:56;;;;;;;;;;;;;;;6.87;100.00;101249.52;1658563;84;21718;-65
2021/03/01 11:27:24;;;;;;;;;;;;;;;6.96;100.00;101246.92;1665673;84;20132;-65
2021/03/01 11:29:52;;;;;;;;;;;;;;;6.97;100.00;101247.28;1668063;84;20229;-64
2021/03/01 11:32:21;;;;;;;;;;;;;;;6.90;100.00;101246.19;1654557;83;20294;-65
2021/03/01 11:34:49;;;;;;;;;;;;;;;6.74;100.00;101252.34;1662796;84;20316;-65
2021/03/01 11:37:17;;;;;;;;;;;;;;;6.54;100.00;101255.38;1655306;84;21195;-67
2021/03/01 11:39:45;;;;;;;;;;;;;;;6.33;100.00;101255.45;1671619;84;20852;-67
2021/03/01 11:42:13;;;;;;;;;;;;;;;6.15;100.00;101255.72;1658710;86;20492;-65
2021/03/01 11:44:41;;;;;;;;;;;;;;;5.93;100.00;101257.51;1662645;84;20907;-65
2021/03/01 11:47:09;;;;;;;;;;;;;;;5.74;100.00;101257.37;1666554;84;20493;-72
2021/03/01 11:49:39;;;;;;;;;;;;;;;5.61;100.00;101257.09;1673617;84;21234;-65
2021/03/01 11:52:07;;;;;;;;;;;;;;;5.56;100.00;101250.64;1682715;83;20674;-66
2021/03/01 11:54:35;;;;;;;;;;;;;;;5.53;100.00;101259.50;1674699;83;20243;-66
2021/03/01 11:57:04;;;;;;;;;;;;;;;5.48;100.00;101264.20;1671021;83;20141;-67
2021/03/01 11:59:32;;;;;;;;;;;;;;;5.31;100.00;101268.64;1683187;82;20301;-67
2021/03/01 12:02:01;;;;;;;;;;;;;;;4.94;100.00;101274.16;1666158;82;21286;-68
2021/03/01 12:04:29;;;;;;;;;;;;;;;4.46;100.00;101277.52;1673936;83;20393;-69
2021/03/01 12:06:57;;;;;;;;;;;;;;;4.02;100.00;101292.87;1681035;83;20161;-67
2021/03/01 12:09:26;;;;;;;;;;;;;;;3.62;100.00;101298.39;1685743;84;20210;-71
2021/03/01 12:11:55;;;;;;;;;;;;;;;3.27;100.00;101311.73;1684386;83;20380;-68
2021/03/01 12:14:29;;;;;;;;;;;;;;;2.99;100.00;101303.83;1750755;80;20187;-68
2021/03/01 12:16:57;;;;;;;;;;;;;;;2.82;100.00;101305.02;1748319;81;20729;-68
2021/03/01 12:19:25;;;;;;;;;;;;;;;2.76;100.00;101300.28;1745334;80;20295;-72
2021/03/01 12:21:54;;;;;;;;;;;;;;;2.79;100.00;101303.94;1752123;81;20181;-69
2021/03/01 12:24:21;;;;;;;;;;;;;;;2.86;100.00;101304.70;1749573;81;20483;-69
2021/03/01 12:26:49;;;;;;;;;;;;;;;2.91;100.00;101304.36;1732832;82;21188;-70
2021/03/01 12:29:17;;;;;;;;;;;;;;;2.95;100.00;101304.51;1730827;82;21055;-67
2021/03/01 12:31:44;;;;;;;;;;;;;;;2.97;100.00;101310.38;1732311;82;20111;-68
2021/03/01 12:34:12;;;;;;;;;;;;;;;3.03;100.00;101306.10;1731455;82;20572;-66
2021/03/01 12:36:40;;;;;;;;;;;;;;;3.15;100.00;101306.52;1723732;82;20542;-65
2021/03/01 12:39:08;;;;;;;;;;;;;;;3.29;100.00;101304.69;1726098;82;22330;-67
2021/03/01 12:41:36;;;;;;;;;;;;;;;3.44;100.00;101305.34;1716283;82;20918;-71
2021/03/01 12:44:05;;;;;;;;;;;;;;;3.61;100.00;101304.48;1731042;82;20962;-67
2021/03/01 12:46:33;;;;;;;;;;;;;;;3.70;100.00;101300.41;1732103;82;20259;-66
2021/03/01 12:49:01;;;;;;;;;;;;;;;3.74;100.00;101302.29;1739691;82;20508;-65
2021/03/01 12:51:29;;;;;;;;;;;;;;;3.75;100.00;101302.64;1720591;82;22578;-65
2021/03/01 12:53:58;;;;;;;;;;;;;;;3.79;100.00;101296.31;1725238;82;20864;-66
2021/03/01 12:56:26;;;;;;;;;;;;;;;3.86;100.00;101301.37;1730785;82;20149;-64
2021/03/01 12:58:54;;;;;;;;;;;;;;;3.93;100.00;101301.75;1718861;82;20181;-64
2021/03/01 13:01:22;;;;;;;;;;;;;;;3.98;100.00;101300.48;1730071;82;20300;-67
2021/03/01 13:03:52;;;;;;;;;;;;;;;4.04;100.00;101297.91;1734622;80;21933;-67
2021/03/01 13:06:20;;;;;;;;;;;;;;;4.17;100.00;101296.50;1740234;81;20598;-65
2021/03/01 13:08:47;;;;;;;;;;;;;;;4.34;100.00;101298.64;1736918;81;20259;-66
2021/03/01 13:11:17;;;;;;;;;;;;;;;4.43;100.00;101303.56;1742703;81;20392;-69
2021/03/01 13:13:45;;;;;;;;;;;;;;;4.39;100.00;101302.53;1747751;81;20295;-65
2021/03/01 13:16:13;;;;;;;;;;;;;;;4.40;100.00;101299.47;1741943;81;22032;-67
2021/03/01 13:18:41;;;;;;;;;;;;;;;4.43;100.00;101303.56;1755947;81;20228;-65
2021/03/01 13:21:09;;;;;;;;;;;;;;;4.40;100.00;101302.05;1699872;82;20558;-65
2021/03/01 13:23:37;;;;;;;;;;;;;;;4.33;100.00;101306.85;1736901;81;20498;-64
2021/03/01 13:26:06;;;;;;;;;;;;;;;4.27;100.00;101311.18;1700454;83;20370;-64
2021/03/01 13:28:34;;;;;;;;;;;;;;;4.27;100.00;101309.07;1738677;81;21265;-64
2021/03/01 13:31:02;;;;;;;;;;;;;;;4.25;100.00;101306.62;1701856;82;20574;-64
2021/03/01 13:33:30;;;;;;;;;;;;;;;4.23;100.00;101303.79;1739056;80;20260;-69
2021/03/01 13:35:58;;;;;;;;;;;;;;;4.17;100.00;101299.08;1756578;81;20594;-64
2021/03/01 13:38:26;;;;;;;;;;;;;;;4.13;100.00;101308.37;1748868;81;20225;-64
2021/03/01 13:40:56;;;;;;;;;;;;;;;4.10;100.00;101311.64;1738982;81;21382;-64
2021/03/01 13:43:26;;;;;;;;;;;;;;;4.05;100.00;101313.28;1750551;81;20220;-71
2021/03/01 13:45:54;;;;;;;;;;;;;;;4.00;100.00;101311.97;1750966;81;20299;-64
2021/03/01 13:48:22;;;;;;;;;;;;;;;3.92;100.00;101314.30;1747657;81;20749;-64
2021/03/01 13:50:50;;;;;;;;;;;;;;;3.85;100.00;101312.63;1753488;81;20156;-65
2021/03/01 13:53:18;;;;;;;;;;;;;;;3.80;100.00;101314.74;1747427;81;21570;-64
2021/03/01 13:55:46;;;;;;;;;;;;;;;3.77;100.00;101309.80;1756063;81;20847;-65
2021/03/01 13:58:14;;;;;;;;;;;;;;;3.75;100.00;101309.93;1737111;81;20219;-65
2021/03/01 14:00:42;;;;;;;;;;;;;;;3.73;100.00;101302.77;1752377;81;20130;-64
2021/03/01 14:03:12;;;;;;;;;;;;;;;3.74;100.00;101310.02;1746703;80;20227;-65
2021/03/01 14:05:40;;;;;;;;;;;;;;;3.73;100.00;101314.84;1753444;81;21047;-65
2021/03/01 14:08:08;;;;;;;;;;;;;;;3.69;100.00;101312.95;1750689;80;22018;-65
2021/03/01 14:10:36;;;;;;;;;;;;;;;3.69;100.00;101316.00;1740446;81;20225;-64
2021/03/01 14:13:06;;;;;;;;;;;;;;;3.71;100.00;101316.69;1753414;80;20454;-65
2021/03/01 14:15:33;;;;;;;;;;;;;;;3.70;100.00;101314.58;1752551;81;20303;-64
2021/03/01 14:18:02;;;;;;;;;;;;;;;3.69;100.00;101312.95;1764266;81;20554;-64
2021/03/01 14:20:30;;;;;;;;;;;;;;;3.66;100.00;101318.32;1755764;81;20231;-64
2021/03/01 14:22:58;;;;;;;;;;;;;;;3.63;100.00;101320.65;1766086;81;20137;-66
2021/03/01 14:25:26;;;;;;;;;;;;;;;3.59;100.00;101319.23;1758975;81;20548;-64
2021/03/01 14:27:55;;;;;;;;;;;;;;;3.56;100.00;101317.34;1764420;81;20240;-65
2021/03/01 14:30:24;;;;;;;;;;;;;;;3.51;100.00;101323.30;1749191;81;21225;-65
2021/03/01 14:32:53;;;;;;;;;;;;;;;3.49;100.00;101322.14;1743540;81;20216;-68
2021/03/01 14:35:22;;;;;;;;;;;;;;;3.47;100.00;101324.46;1761154;81;20524;-64
2021/03/01 14:37:50;;;;;;;;;;;;;;;3.43;100.00;101322.56;1762122;81;20224;-64
2021/03/01 14:40:19;;;;;;;;;;;;;;;3.39;100.00;101325.02;1740928;81;20230;-64
2021/03/01 14:42:48;;;;;;;;;;;;;;;3.35;100.00;101324.87;1764327;81;22292;-71
2021/03/01 14:45:17;;;;;;;;;;;;;;;3.33;100.00;101331.88;1752592;81;20202;-68
2021/03/01 14:47:46;;;;;;;;;;;;;;;3.31;100.00;101336.34;1764035;81;20133;-64
2021/03/01 14:50:14;;;;;;;;;;;;;;;3.28;100.00;101328.83;1759691;81;20244;-65
2021/03/01 14:52:42;;;;;;;;;;;;;;;3.26;100.00;101331.96;1765313;81;20244;-66
2021/03/01 14:55:11;;;;;;;;;;;;;;;3.22;100.00;101333.11;1757960;80;21193;-65
2021/03/01 14:57:39;;;;;;;;;;;;;;;3.19;100.00;101339.80;1731923;81;20272;-64
2021/03/01 15:00:08;;;;;;;;;;;;;;;3.14;100.00;101336.23;1760972;81;20144;-64
2021/03/01 15:02:37;;;;;;;;;;;;;;;3.06;100.00;101338.06;1732416;81;20217;-65
2021/03/01 15:05:06;;;;;;;;;;;;;;;2.98;100.00;101337.78;1758138;81;20210;-66
2021/03/01 15:07:34;;;;;;;;;;;;;;;2.89;100.00;101338.43;1757188;81;21377;-64
2021/03/01 15:10:03;;;;;;;;;;;;;;;2.80;100.00;101346.31;1762938;81;20270;-64
2021/03/01 15:12:31;;;;;;;;;;;;;;;2.75;100.00;101350.14;1744816;81;20129;-65
2021/03/01 15:14:59;;;;;;;;;;;;;;;2.70;100.00;101349.18;1752197;81;20307;-67
2021/03/01 15:17:27;;;;;;;;;;;;;;;2.69;100.00;101355.27;1753869;81;20421;-64
2021/03/01 15:19:55;;;;;;;;;;;;;;;2.67;100.00;101360.50;1765704;81;21456;-64
2021/03/01 15:22:23;;;;;;;;;;;;;;;2.66;100.00;101366.58;1756962;81;20506;-64
2021/03/01 15:24:51;;;;;;;;;;;;;;;2.62;100.00;101369.01;1765315;81;20145;-66
2021/03/01 15:27:19;;;;;;;;;;;;;;;2.57;100.00;101372.34;1750551;81;20422;-64
2021/03/01 15:29:47;;;;;;;;;;;;;;;2.52;100.00;101371.02;1729971;82;20227;-64
2021/03/01 15:32:16;;;;;;;;;;;;;;;2.44;100.00;101376.21;1757367;81;22663;-64
2021/03/01 15:34:44;;;;;;;;;;;;;;;2.40;100.00;101385.53;1755566;81;20629;-66
2021/03/01 15:37:12;;;;;;;;;;;;;;;2.35;100.00;101388.85;1762572;81;20149;-65
2021/03/01 15:39:40;;;;;;;;;;;;;;;2.29;100.00;101389.28;1752146;81;20239;-65
2021/03/01 15:42:08;;;;;;;;;;;;;;;2.22;100.00;101397.04;1752325;81;20268;-65
2021/03/01 15:44:37;;;;;;;;;;;;;;;2.14;100.00;101393.22;1754770;81;22698;-71
2021/03/01 15:47:05;;;;;;;;;;;;;;;2.08;100.00;101394.89;1758151;81;20258;-66
2021/03/01 15:49:33;;;;;;;;;;;;;;;2.06;100.00;101392.08;1706869;83;20165;-64
2021/03/01 15:52:04;;;;;;;;;;;;;;;2.04;100.00;101396.48;1740454;81;20170;-67
2021/03/01 15:54:31;;;;;;;;;;;;;;;2.04;100.00;101397.77;1730419;81;20490;-66
2021/03/01 15:56:59;;;;;;;;;;;;;;;2.02;100.00;101409.92;1745242;81;22567;-67
2021/03/01 15:59:27;;;;;;;;;;;;;;;2.03;100.00;101414.13;1739648;81;20421;-66
2021/03/01 16:01:55;;;;;;;;;;;;;;;2.01;100.00;101410.39;1746713;81;20324;-68
2021/03/01 16:04:24;;;;;;;;;;;;;;;1.99;100.00;101416.08;1742067;81;20727;-67
2021/03/01 16:06:52;;;;;;;;;;;;;;;1.95;100.00;101411.59;1736660;81;20227;-71
2021/03/01 16:09:23;;;;;;;;;;;;;;;1.92;100.00;101416.92;1719285;82;21229;-68
2021/03/01 16:11:52;;;;;;;;;;;;;;;1.90;100.00;101423.11;1746924;81;21983;-66
2021/03/01 16:14:20;;;;;;;;;;;;;;;1.86;100.00;101425.52;1706057;82;20477;-65
2021/03/01 16:16:49;;;;;;;;;;;;;;;1.82;100.00;101428.73;1696421;84;20302;-72
2021/03/01 16:19:19;;;;;;;;;;;;;;;1.79;100.00;101434.06;1682186;84;20317;-64
2021/03/01 16:21:47;;;;;;;;;;;;;;;1.77;100.00;101431.22;1710150;83;22314;-72
2021/03/01 16:24:16;;;;;;;;;;;;;;;1.76;100.00;101434.72;1712983;83;20616;-67
2021/03/01 16:26:44;;;;;;;;;;;;;;;1.74;100.00;101432.23;1698198;84;20493;-74
2021/03/01 16:29:11;;;;;;;;;;;;;;;1.73;100.00;101434.91;1694404;83;21401;-67
2021/03/01 16:31:39;;;;;;;;;;;;;;;1.73;100.00;101434.91;1704151;83;20330;-69
2021/03/01 16:34:08;;;;;;;;;;;;;;;1.73;100.00;101433.63;1705686;83;21619;-68
2021/03/01 16:36:38;;;;;;;;;;;;;;;1.73;100.00;101437.48;1704100;83;20143;-67
2021/03/01 16:39:07;;;;;;;;;;;;;;;1.74;100.00;101432.69;1702095;83;20287;-69
2021/03/01 16:41:35;;;;;;;;;;;;;;;1.72;100.00;101428.12;1711798;83;20365;-67
2021/03/01 16:44:04;;;;;;;;;;;;;;;1.70;100.00;101433.34;1716946;82;20175;-68
2021/03/01 16:46:35;;;;;;;;;;;;;;;1.68;100.00;101437.78;1716014;83;22302;-68
2021/03/01 16:49:08;;;;;;;;;;;;;;;1.65;100.00;101442.64;1713455;83;21007;-70
2021/03/01 16:51:37;;;;;;;;;;;;;;;1.64;100.00;101444.85;1699232;83;20352;-69
2021/03/01 16:54:06;;;;;;;;;;;;;;;1.63;100.00;101447.50;1710267;83;20299;-68
2021/03/01 16:56:34;;;;;;;;;;;;;;;1.58;100.00;101444.41;1711408;83;20489;-67
2021/03/01 16:59:05;;;;;;;;;;;;;;;1.56;100.00;101439.38;1715848;83;21200;-74